Grantown-on-Spey, United Kingdom
Current Conditions -  °F | °C
As of 9:50 PM on Wednesday 28 Jan 2015 (Local Time) from EGPE Reporting Station
Rain Showers Rain Showers  
Wind Chill: 18°   Ceiling: Unl
Heat Index: 30°   Visibility: 6mi
Dew Point: 28°   Wind: 17mph
Humidity: 93%   Direction: 240°WSW
Pressure: 28.94"   Gusts: NA
Location:  57.32°N, 3.62°W
Report Text: EGPE 282150Z 24015KT 9999 VCSH FEW015CB M01/M02 Q0980
Loading
Personal Weather Stations






























Interactive Weather Map New forecast layout! Learn more

10-Day Weather Forecast

Advertisements
Track Severe Weather on mobile